Time;durP1;ratioP1;P1;durP2;ratioP2;P2;SDS_P1;SDS_P2;PMS_P1;PMS_P2;Temp;Humidity;BMP_temperature;BMP_pressure;BME280_temperature;BME280_humidity;BME280_pressure;Samples;Min_cycle;Max_cycle;Signal;HPM_P1;HPM_P2
2021/12/18 00:01:57;;;;;;;31.93;11.30;;;1.50;99.90;;;;;;4159951;28;20316;-59
2021/12/18 00:03:58;;;;;;;25.73;8.63;;;1.50;99.90;;;;;;4158475;28;20337;-58
2021/12/18 00:06:00;;;;;;;22.60;8.17;;;1.50;99.90;;;;;;4159751;28;20263;-62
2021/12/18 00:08:01;;;;;;;19.97;7.27;;;1.40;99.90;;;;;;4158289;28;20345;-58
2021/12/18 00:10:05;;;;;;;40.93;11.03;;;1.40;99.90;;;;;;4159786;28;20263;-59
2021/12/18 00:12:07;;;;;;;33.43;10.90;;;1.40;99.90;;;;;;4158628;28;20287;-60
2021/12/18 00:14:08;;;;;;;42.47;14.30;;;1.40;99.90;;;;;;4159684;28;20255;-56
2021/12/18 00:16:09;;;;;;;24.93;9.43;;;1.40;99.90;;;;;;4158256;28;20348;-59
2021/12/18 00:18:11;;;;;;;29.60;11.97;;;1.40;99.90;;;;;;4159225;28;20755;-56
2021/12/18 00:20:16;;;;;;;18.07;6.97;;;1.40;99.90;;;;;;4158677;28;20349;-67
2021/12/18 00:22:17;;;;;;;13.77;6.70;;;1.30;99.90;;;;;;4159000;28;20287;-66
2021/12/18 00:24:19;;;;;;;11.57;6.13;;;1.30;99.90;;;;;;4157088;28;20243;-64
2021/12/18 00:26:20;;;;;;;9.30;4.93;;;1.30;99.90;;;;;;4158718;28;20255;-66
2021/12/18 00:28:22;;;;;;;9.50;5.90;;;1.30;99.90;;;;;;4159163;28;20278;-59
2021/12/18 00:30:23;;;;;;;10.97;4.80;;;1.30;99.90;;;;;;4158043;28;20376;-59
2021/12/18 00:32:24;;;;;;;9.23;5.27;;;1.30;99.90;;;;;;4159377;28;20305;-57
2021/12/18 00:34:25;;;;;;;6.30;3.87;;;1.30;99.90;;;;;;4157542;28;20616;-60
2021/12/18 00:36:26;;;;;;;6.60;3.50;;;1.30;99.90;;;;;;4158173;28;20266;-59
2021/12/18 00:38:30;;;;;;;5.87;3.43;;;1.30;99.90;;;;;;4158026;28;21164;-61
2021/12/18 00:40:44;;;;;;;7.53;3.67;;;1.30;99.90;;;;;;4159275;28;20348;-56
2021/12/18 00:42:56;;;;;;;9.17;4.83;;;1.30;99.90;;;;;;4158387;28;20316;-61
2021/12/18 00:44:59;;;;;;;7.53;3.90;;;1.30;99.90;;;;;;4158847;28;20270;-60
2021/12/18 00:47:00;;;;;;;7.73;4.10;;;1.30;99.90;;;;;;4157867;28;20337;-65
2021/12/18 00:49:02;;;;;;;5.87;3.33;;;1.30;99.90;;;;;;4158724;28;20669;-59
2021/12/18 00:51:04;;;;;;;4.87;3.03;;;1.30;99.90;;;;;;4157788;28;20689;-58
2021/12/18 00:53:05;;;;;;;6.63;4.07;;;1.30;99.90;;;;;;4159582;28;20271;-59
2021/12/18 00:55:07;;;;;;;8.87;4.23;;;1.30;99.90;;;;;;4156900;28;20666;-59
2021/12/18 00:57:08;;;;;;;7.57;4.00;;;1.30;99.90;;;;;;4158722;28;21053;-59
2021/12/18 00:59:09;;;;;;;10.03;3.90;;;1.40;99.90;;;;;;4157852;28;20282;-59
2021/12/18 01:01:11;;;;;;;10.43;4.97;;;1.40;99.90;;;;;;4158371;28;20344;-59
2021/12/18 01:03:18;;;;;;;6.97;4.20;;;1.40;99.90;;;;;;4157979;28;20279;-60
2021/12/18 01:05:20;;;;;;;10.10;5.60;;;1.40;99.90;;;;;;4158308;28;20263;-60
2021/12/18 01:07:23;;;;;;;10.67;4.93;;;1.40;99.90;;;;;;4158311;28;20977;-58
2021/12/18 01:09:42;;;;;;;9.30;5.23;;;1.40;99.90;;;;;;4158011;28;20262;-58
2021/12/18 01:11:45;;;;;;;13.93;5.60;;;1.40;99.90;;;;;;4158383;28;20824;-60
2021/12/18 01:15:56;;;;;;;11.10;4.37;;;1.40;99.90;;;;;;4158440;28;20705;-59
2021/12/18 01:22:49;;;;;;;12.63;5.27;;;1.40;99.90;;;;;;4158368;28;20119;-60
2021/12/18 01:24:51;;;;;;;8.57;4.47;;;1.40;99.90;;;;;;4158043;28;20305;-61
2021/12/18 01:26:52;;;;;;;10.10;5.30;;;1.40;99.90;;;;;;4157573;28;20324;-60
2021/12/18 01:28:53;;;;;;;9.57;5.77;;;1.40;99.90;;;;;;4158085;28;20328;-60
2021/12/18 01:30:54;;;;;;;9.40;5.93;;;1.40;99.90;;;;;;4157033;28;20778;-59
2021/12/18 01:32:55;;;;;;;8.20;4.63;;;1.40;99.90;;;;;;4158476;28;20332;-60
2021/12/18 01:34:56;;;;;;;9.27;5.57;;;1.40;99.90;;;;;;4156802;28;20305;-58
2021/12/18 01:36:58;;;;;;;17.40;7.53;;;1.40;99.90;;;;;;4158405;28;20736;-61
2021/12/18 01:39:02;;;;;;;7.97;4.77;;;1.40;99.90;;;;;;4156994;28;20320;-60
2021/12/18 01:41:04;;;;;;;9.70;4.80;;;1.40;99.90;;;;;;4158527;28;20786;-64
2021/12/18 01:45:42;;;;;;;10.60;4.87;;;1.40;99.90;;;;;;4158435;28;20293;-59
2021/12/18 01:52:32;;;;;;;9.53;4.33;;;1.40;99.90;;;;;;4156633;28;20321;-62
2021/12/18 01:54:33;;;;;;;10.93;5.37;;;1.40;99.90;;;;;;4158278;28;20271;-58
2021/12/18 01:56:34;;;;;;;6.93;4.67;;;1.40;99.90;;;;;;4156706;28;20294;-60
2021/12/18 01:58:36;;;;;;;9.23;4.87;;;1.40;99.90;;;;;;4158084;28;20263;-61
2021/12/18 02:00:43;;;;;;;7.13;4.47;;;1.40;99.90;;;;;;4156274;28;20302;-59
2021/12/18 02:02:44;;;;;;;6.63;3.73;;;1.40;99.90;;;;;;4157977;28;20286;-61
2021/12/18 02:04:45;;;;;;;7.67;4.07;;;1.40;99.90;;;;;;4156976;28;20263;-60
2021/12/18 02:06:46;;;;;;;6.73;4.30;;;1.40;99.90;;;;;;4157931;28;20289;-59
2021/12/18 02:08:47;;;;;;;11.10;5.60;;;1.40;99.90;;;;;;4156786;28;20418;-62
2021/12/18 02:10:58;;;;;;;8.73;4.50;;;1.40;99.90;;;;;;4157955;28;21080;-61
2021/12/18 02:19:52;;;;;;;9.23;4.83;;;1.30;99.90;;;;;;4157542;28;20266;-58
2021/12/18 02:21:54;;;;;;;9.67;4.27;;;1.30;99.90;;;;;;4156364;28;20698;-60
2021/12/18 02:23:55;;;;;;;7.63;4.10;;;1.30;99.90;;;;;;4157946;28;20320;-60
2021/12/18 02:25:56;;;;;;;7.83;4.53;;;1.20;99.90;;;;;;4156582;28;20267;-60
2021/12/18 02:27:57;;;;;;;6.80;4.00;;;1.20;99.90;;;;;;4157755;28;21303;-62
2021/12/18 02:30:03;;;;;;;9.17;4.57;;;1.20;99.90;;;;;;4155958;28;20290;-57
2021/12/18 02:32:06;;;;;;;9.47;4.43;;;1.20;99.90;;;;;;4156998;28;20267;-59
2021/12/18 02:34:15;;;;;;;7.30;3.57;;;1.20;99.90;;;;;;4156573;28;20255;-60
2021/12/18 02:36:23;;;;;;;6.53;3.57;;;1.20;99.90;;;;;;4157144;28;20344;-66
2021/12/18 02:39:04;;;;;;;10.10;4.13;;;1.20;99.90;;;;;;4157130;28;20280;-64
2021/12/18 02:41:15;;;;;;;7.63;3.67;;;1.10;99.90;;;;;;4157876;28;20287;-60
2021/12/18 02:43:16;;;;;;;8.27;3.90;;;1.10;99.90;;;;;;4156702;28;20275;-59
2021/12/18 02:45:17;;;;;;;8.57;4.07;;;1.10;99.90;;;;;;4157486;28;20274;-66
2021/12/18 02:47:18;;;;;;;5.83;3.80;;;1.10;99.90;;;;;;4156452;28;20263;-60
2021/12/18 02:49:20;;;;;;;6.93;3.90;;;1.10;99.90;;;;;;4156824;28;20666;-62
2021/12/18 02:51:21;;;;;;;6.50;3.90;;;1.00;99.90;;;;;;4157210;28;20274;-56
2021/12/18 02:53:23;;;;;;;6.77;3.57;;;1.00;99.90;;;;;;4156315;28;20368;-59
2021/12/18 02:55:24;;;;;;;7.90;3.70;;;1.00;99.90;;;;;;4156976;28;20271;-60
2021/12/18 02:57:25;;;;;;;4.73;3.20;;;0.90;99.90;;;;;;4155635;28;20926;-60
2021/12/18 02:59:27;;;;;;;6.13;3.53;;;0.90;99.90;;;;;;4157354;28;20291;-60
2021/12/18 03:01:28;;;;;;;6.33;3.50;;;0.90;99.90;;;;;;4156277;28;20352;-59
2021/12/18 03:03:33;;;;;;;7.50;4.00;;;0.90;99.90;;;;;;4157030;28;20784;-60
2021/12/18 03:05:41;;;;;;;6.67;3.80;;;0.90;99.90;;;;;;4156085;28;20275;-65
2021/12/18 03:07:43;;;;;;;5.73;3.30;;;0.90;99.90;;;;;;4157323;28;20312;-62
2021/12/18 03:22:33;;;;;;;4.87;3.03;;;0.70;99.90;;;;;;4157356;28;20295;-61
2021/12/18 03:24:34;;;;;;;;;;;0.60;99.90;;;;;;4158448;28;20384;-60
2021/12/18 03:26:30;;;;;;;;;;;0.60;99.90;;;;;;4157446;28;19931;-62
2021/12/18 03:28:31;;;;;;;;;;;0.60;99.90;;;;;;4160736;28;20420;-62
2021/12/18 03:30:33;;;;;;;6.72;2.97;;;0.60;99.90;;;;;;4159578;28;19940;-61
2021/12/18 03:32:34;;;;;;;10.17;3.97;;;0.60;99.90;;;;;;4159839;28;20037;-66
2021/12/18 03:34:36;;;;;;;6.77;3.00;;;0.50;99.90;;;;;;4159527;28;20259;-64
2021/12/18 03:36:37;;;;;;;7.27;3.10;;;0.50;99.90;;;;;;4159625;28;20769;-61
2021/12/18 03:38:39;;;;;;;5.50;3.27;;;0.50;99.90;;;;;;4160117;28;20374;-59
2021/12/18 03:40:40;;;;;;;5.70;3.07;;;0.50;99.90;;;;;;4159246;28;20843;-61
2021/12/18 03:42:41;;;;;;;8.00;3.53;;;0.50;99.90;;;;;;4160368;28;20337;-60
2021/12/18 03:44:43;;;;;;;6.90;3.53;;;0.40;99.90;;;;;;4158550;28;21049;-61
2021/12/18 03:46:44;;;;;;;8.13;3.73;;;0.40;99.90;;;;;;4159962;28;20273;-61
2021/12/18 03:48:45;;;;;;;7.53;3.33;;;0.40;99.90;;;;;;4158368;28;20768;-60
2021/12/18 03:50:46;;;;;;;5.63;3.13;;;0.40;99.90;;;;;;4160229;28;20283;-61
2021/12/18 03:52:48;;;;;;;5.67;2.93;;;0.40;99.90;;;;;;4158627;28;20313;-61
2021/12/18 03:54:49;;;;;;;4.83;2.83;;;0.40;99.90;;;;;;4159715;28;20337;-61
2021/12/18 03:56:51;;;;;;;6.87;3.40;;;0.40;99.90;;;;;;4158325;28;20643;-61
2021/12/18 03:58:52;;;;;;;5.77;3.37;;;0.40;99.90;;;;;;4159636;28;20314;-62
2021/12/18 04:00:54;;;;;;;5.03;3.17;;;0.40;99.90;;;;;;4158407;28;20305;-60
2021/12/18 04:02:55;;;;;;;6.20;2.90;;;0.30;99.90;;;;;;4159592;28;20266;-59
2021/12/18 04:04:56;;;;;;;5.43;2.80;;;0.30;99.90;;;;;;4158964;28;20282;-61
2021/12/18 04:06:59;;;;;;;7.67;3.60;;;0.30;99.90;;;;;;4159259;28;20392;-64
2021/12/18 04:09:00;;;;;;;6.70;3.50;;;0.30;99.90;;;;;;4158069;28;20317;-60
2021/12/18 04:11:01;;;;;;;6.27;3.37;;;0.30;99.90;;;;;;4158012;28;20329;-60
2021/12/18 04:13:03;;;;;;;7.17;3.60;;;0.20;99.90;;;;;;4160232;28;20271;-57
2021/12/18 04:15:05;;;;;;;5.33;3.37;;;0.20;99.90;;;;;;4158036;28;20279;-60
2021/12/18 04:17:06;;;;;;;7.20;3.50;;;0.20;99.90;;;;;;4158214;28;20270;-61
2021/12/18 04:19:07;;;;;;;11.47;3.77;;;0.20;99.90;;;;;;4158513;28;20319;-60
2021/12/18 04:21:09;;;;;;;8.10;3.83;;;0.20;99.90;;;;;;4159223;28;20287;-60
2021/12/18 04:23:10;;;;;;;12.83;3.80;;;0.20;99.90;;;;;;4158033;28;20340;-58
2021/12/18 04:25:11;;;;;;;5.50;3.43;;;0.20;99.90;;;;;;4159480;28;20337;-65
2021/12/18 04:27:12;;;;;;;6.47;3.70;;;0.20;99.90;;;;;;4157876;28;20321;-60
2021/12/18 04:29:13;;;;;;;8.53;3.57;;;0.20;99.90;;;;;;4158789;28;20666;-60
2021/12/18 04:31:14;;;;;;;5.07;3.60;;;0.20;99.90;;;;;;4157216;28;20251;-63
2021/12/18 04:33:16;;;;;;;7.57;3.60;;;0.20;99.90;;;;;;4158936;28;20309;-60
2021/12/18 04:35:17;;;;;;;6.30;2.57;;;0.20;99.90;;;;;;4158394;28;20266;-60
2021/12/18 04:37:20;;;;;;;6.70;3.23;;;0.20;99.90;;;;;;4158584;28;20651;-60
2021/12/18 04:39:21;;;;;;;6.33;3.83;;;0.20;99.90;;;;;;4158769;28;20262;-60
2021/12/18 04:41:24;;;;;;;8.77;4.30;;;0.20;99.90;;;;;;4157931;28;20373;-59
2021/12/18 04:43:26;;;;;;;8.30;4.33;;;0.20;99.90;;;;;;4159025;28;20279;-60
2021/12/18 04:45:27;;;;;;;7.30;3.97;;;0.20;99.90;;;;;;4157869;28;21203;-60
2021/12/18 04:47:28;;;;;;;6.97;3.50;;;0.10;99.90;;;;;;4158847;28;20674;-61
2021/12/18 04:49:29;;;;;;;7.83;3.80;;;0.10;99.90;;;;;;4157506;28;20751;-61
2021/12/18 04:51:31;;;;;;;7.60;3.83;;;0.10;99.90;;;;;;4159369;28;20673;-60
2021/12/18 04:53:32;;;;;;;6.97;3.80;;;0.10;99.90;;;;;;4157612;28;21097;-61
2021/12/18 04:55:33;;;;;;;7.80;4.10;;;0.10;99.90;;;;;;4157594;28;20262;-60
2021/12/18 04:57:34;;;;;;;12.20;4.07;;;0.10;99.90;;;;;;4157551;28;20267;-61
2021/12/18 04:59:42;;;;;;;13.23;5.87;;;0.10;99.90;;;;;;4158228;28;20290;-67
2021/12/18 05:01:43;;;;;;;10.80;4.87;;;0.10;99.90;;;;;;4157273;28;20283;-62
2021/12/18 05:03:47;;;;;;;10.43;4.97;;;0.10;99.90;;;;;;4157004;28;20943;-60
2021/12/18 05:05:48;;;;;;;33.50;10.47;;;0.10;99.90;;;;;;4157593;28;20270;-61
2021/12/18 05:07:49;;;;;;;14.67;5.80;;;0.10;99.90;;;;;;4158437;28;20366;-59
2021/12/18 05:09:50;;;;;;;13.47;5.10;;;0.10;99.90;;;;;;4158037;28;20332;-59
2021/12/18 05:11:51;;;;;;;8.13;4.30;;;0.10;99.90;;;;;;4158110;28;20286;-61
2021/12/18 05:13:53;;;;;;;12.33;5.23;;;0.10;99.90;;;;;;4158366;28;20743;-60
2021/12/18 05:15:54;;;;;;;8.53;4.53;;;0.10;99.90;;;;;;4157730;28;20263;-61
2021/12/18 05:17:55;;;;;;;9.70;4.43;;;0.10;99.90;;;;;;4158176;28;20279;-61
2021/12/18 05:19:56;;;;;;;8.47;5.03;;;0.10;99.90;;;;;;4157090;28;20262;-60
2021/12/18 05:21:57;;;;;;;8.17;4.10;;;0.10;99.90;;;;;;4158510;28;20294;-61
2021/12/18 05:23:58;;;;;;;11.30;5.40;;;0.10;99.90;;;;;;4156933;28;20747;-60
2021/12/18 05:25:59;;;;;;;16.00;7.90;;;0.10;99.90;;;;;;4158650;28;20275;-59
2021/12/18 05:28:01;;;;;;;13.40;7.40;;;0.10;99.90;;;;;;4156842;28;20320;-65
2021/12/18 05:30:04;;;;;;;17.47;8.80;;;0.10;99.90;;;;;;4158041;28;20678;-62
2021/12/18 05:32:06;;;;;;;22.37;10.40;;;0.10;99.90;;;;;;4156594;28;20616;-61
2021/12/18 05:34:07;;;;;;;22.93;11.57;;;0.10;99.90;;;;;;4157869;28;20278;-63
2021/12/18 05:36:29;;;;;;;17.27;8.27;;;0.00;99.90;;;;;;4156926;28;20340;-61
2021/12/18 05:38:29;;;;;;;10.20;6.33;;;0.00;99.90;;;;;;4157991;28;20290;-62
2021/12/18 05:40:33;;;;;;;13.33;6.80;;;0.10;99.90;;;;;;4156220;28;20337;-65
2021/12/18 05:42:34;;;;;;;15.13;7.43;;;0.00;99.90;;;;;;4157986;28;21050;-61
2021/12/18 05:44:35;;;;;;;15.03;7.63;;;0.10;99.90;;;;;;4157161;28;20271;-60
2021/12/18 05:46:36;;;;;;;12.97;6.57;;;0.10;99.90;;;;;;4157559;28;20891;-58
2021/12/18 05:48:37;;;;;;;20.57;8.50;;;0.10;99.90;;;;;;4157590;28;20677;-59
2021/12/18 05:50:39;;;;;;;12.17;5.93;;;0.10;99.90;;;;;;4157065;28;20654;-60
2021/12/18 05:52:41;;;;;;;8.93;5.40;;;0.10;99.90;;;;;;4157507;28;20332;-59
2021/12/18 05:54:43;;;;;;;13.43;7.60;;;0.10;99.90;;;;;;4156788;28;20324;-61
2021/12/18 05:56:44;;;;;;;14.90;6.87;;;0.10;99.90;;;;;;4157453;28;20313;-60
2021/12/18 05:58:46;;;;;;;14.17;7.10;;;0.10;99.90;;;;;;4156612;28;20270;-63
2021/12/18 06:00:47;;;;;;;15.37;8.33;;;0.10;99.90;;;;;;4157396;28;20690;-61
2021/12/18 06:02:49;;;;;;;14.30;6.97;;;0.10;99.90;;;;;;4156491;28;20295;-64
2021/12/18 06:04:50;;;;;;;10.33;5.73;;;0.10;99.90;;;;;;4158132;28;21024;-61
2021/12/18 06:06:51;;;;;;;12.23;6.60;;;0.10;99.90;;;;;;4156651;28;20275;-65
2021/12/18 06:08:52;;;;;;;8.60;4.83;;;0.00;99.90;;;;;;4157613;28;20325;-64
2021/12/18 06:10:55;;;;;;;13.83;7.20;;;0.00;99.90;;;;;;4156483;28;20612;-60
2021/12/18 06:12:59;;;;;;;13.50;7.40;;;0.00;99.90;;;;;;4157661;28;20362;-60
2021/12/18 06:15:00;;;;;;;11.73;6.17;;;0.00;99.90;;;;;;4156927;28;20246;-59
2021/12/18 06:17:01;;;;;;;11.93;6.10;;;0.00;99.90;;;;;;4156924;28;20270;-60
2021/12/18 06:19:02;;;;;;;16.40;8.67;;;0.00;99.90;;;;;;4156619;28;20837;-62
2021/12/18 06:21:04;;;;;;;14.90;6.63;;;0.10;99.90;;;;;;4156271;28;20340;-60
2021/12/18 06:23:05;;;;;;;9.10;5.20;;;0.10;99.90;;;;;;4156903;28;20291;-60
2021/12/18 06:25:07;;;;;;;14.67;5.53;;;0.20;99.90;;;;;;4156285;28;20309;-62
2021/12/18 06:27:08;;;;;;;11.07;5.40;;;0.20;99.90;;;;;;4157522;28;20347;-65
2021/12/18 06:29:09;;;;;;;9.53;5.17;;;0.20;99.90;;;;;;4156195;28;20308;-59
2021/12/18 06:31:10;;;;;;;10.50;5.00;;;0.20;99.90;;;;;;4156887;28;20275;-60
2021/12/18 06:33:11;;;;;;;11.03;5.00;;;0.30;99.90;;;;;;4156567;28;20267;-61
2021/12/18 06:35:12;;;;;;;11.00;5.67;;;0.40;99.90;;;;;;4157119;28;20694;-59
2021/12/18 06:37:14;;;;;;;16.10;7.90;;;0.80;99.90;;;;;;4156144;28;20329;-60
2021/12/18 06:39:15;;;;;;;13.50;6.23;;;1.10;99.90;;;;;;4157261;28;20271;-61
2021/12/18 06:41:16;;;;;;;12.47;5.33;;;1.30;99.90;;;;;;4155870;28;20324;-61
2021/12/18 06:43:17;;;;;;;14.43;7.07;;;1.50;99.90;;;;;;4157244;28;20750;-60
2021/12/18 06:45:18;;;;;;;10.73;5.83;;;1.70;99.90;;;;;;4155885;28;20689;-62
2021/12/18 06:47:20;;;;;;;9.87;5.17;;;1.90;99.90;;;;;;4156294;28;20389;-60
2021/12/18 06:49:21;;;;;;;7.50;4.23;;;2.30;99.90;;;;;;4156415;28;20254;-60
2021/12/18 06:51:22;;;;;;;8.27;4.43;;;2.70;99.90;;;;;;4156287;28;20334;-61
2021/12/18 06:53:23;;;;;;;7.50;4.20;;;3.00;99.90;;;;;;4157916;28;20279;-59
2021/12/18 06:55:25;;;;;;;8.10;4.20;;;3.40;99.90;;;;;;4159428;28;20376;-61
2021/12/18 06:57:26;;;;;;;9.23;4.67;;;3.80;99.90;;;;;;4160510;28;20274;-60
2021/12/18 06:59:28;;;;;;;7.20;4.60;;;4.20;99.90;;;;;;4158639;28;20333;-60
2021/12/18 07:01:29;;;;;;;9.33;4.73;;;4.40;99.90;;;;;;4160137;28;20321;-61
2021/12/18 07:03:31;;;;;;;10.83;5.70;;;4.70;99.90;;;;;;4158806;28;20333;-60
2021/12/18 07:05:32;;;;;;;11.63;5.17;;;4.80;99.90;;;;;;4160332;28;20364;-61
2021/12/18 07:07:33;;;;;;;7.23;4.80;;;4.90;99.90;;;;;;4159218;28;20080;-60
2021/12/18 07:09:34;;;;;;;9.30;5.27;;;5.10;99.90;;;;;;4159982;28;20029;-66
2021/12/18 07:11:35;;;;;;;9.40;5.27;;;5.20;99.90;;;;;;4159438;28;20026;-60
2021/12/18 07:13:36;;;;;;;10.13;6.17;;;5.40;99.90;;;;;;4159004;28;20046;-62
2021/12/18 07:15:38;;;;;;;10.63;5.47;;;5.40;99.90;;;;;;4159020;28;20073;-61
2021/12/18 07:17:39;;;;;;;9.07;5.63;;;5.40;99.90;;;;;;4159675;28;20041;-61
2021/12/18 07:19:40;;;;;;;11.53;5.23;;;5.40;99.90;;;;;;4159051;28;20041;-62
2021/12/18 07:21:41;;;;;;;6.70;3.93;;;5.50;99.90;;;;;;4158937;28;20038;-62
2021/12/18 07:23:42;;;;;;;4.10;3.50;;;5.60;99.90;;;;;;4159380;28;20057;-61
2021/12/18 07:25:44;;;;;;;5.30;3.60;;;5.70;99.90;;;;;;4158840;28;20045;-62
2021/12/18 07:27:46;;;;;;;7.00;3.73;;;5.80;99.90;;;;;;4159768;28;20041;-60
2021/12/18 07:29:47;;;;;;;8.77;3.47;;;5.30;99.90;;;;;;4159024;28;20029;-63
2021/12/18 07:31:48;;;;;;;6.67;3.40;;;5.00;99.90;;;;;;4159759;28;20037;-67
2021/12/18 07:33:50;;;;;;;7.80;4.17;;;4.70;99.90;;;;;;4158661;28;20099;-65
2021/12/18 07:35:51;;;;;;;5.17;3.73;;;4.60;99.90;;;;;;4160118;28;20046;-69
2021/12/18 07:37:52;;;;;;;7.57;4.37;;;4.50;99.90;;;;;;4158333;28;20479;-62
2021/12/18 07:39:53;;;;;;;7.77;4.73;;;4.50;99.90;;;;;;4159607;28;20029;-61
2021/12/18 07:41:54;;;;;;;7.17;4.17;;;4.30;99.90;;;;;;4158490;28;20049;-61
2021/12/18 07:43:56;;;;;;;7.77;3.97;;;4.40;99.90;;;;;;4159505;28;20034;-64
2021/12/18 07:45:57;;;;;;;8.93;4.73;;;4.40;99.90;;;;;;4158404;28;20087;-61
2021/12/18 07:47:58;;;;;;;7.27;3.60;;;4.30;99.90;;;;;;4159082;28;20045;-62
2021/12/18 07:50:01;;;;;;;8.03;3.80;;;4.30;99.90;;;;;;4158410;28;20818;-63
2021/12/18 07:52:04;;;;;;;5.43;3.33;;;4.20;99.90;;;;;;4158744;28;20045;-72
2021/12/18 07:54:06;;;;;;;5.40;3.27;;;4.20;99.90;;;;;;4158374;28;20014;-58
2021/12/18 07:56:09;;;;;;;7.90;3.10;;;4.50;99.90;;;;;;4157809;28;20029;-62
2021/12/18 07:58:10;;;;;;;7.53;3.23;;;4.80;99.90;;;;;;4158473;28;20067;-60
2021/12/18 08:00:14;;;;;;;6.10;3.27;;;5.10;99.90;;;;;;4157382;28;20180;-65
2021/12/18 08:02:15;;;;;;;5.37;3.97;;;5.50;99.90;;;;;;4159027;28;20049;-73
2021/12/18 08:04:17;;;;;;;6.27;4.13;;;5.70;99.90;;;;;;4157898;28;20581;-60
2021/12/18 08:06:21;;;;;;;9.93;4.83;;;5.60;99.90;;;;;;4158285;28;20030;-62
2021/12/18 08:08:22;;;;;;;6.40;3.57;;;5.50;99.90;;;;;;4157818;28;20033;-72
2021/12/18 08:10:23;;;;;;;5.00;3.17;;;5.50;99.90;;;;;;4159112;28;20745;-72
2021/12/18 08:12:24;;;;;;;7.53;3.10;;;5.60;99.90;;;;;;4157987;28;20540;-72
2021/12/18 08:14:25;;;;;;;5.33;4.00;;;5.90;99.90;;;;;;4158765;28;20037;-72
2021/12/18 08:16:27;;;;;;;7.80;3.57;;;6.00;99.90;;;;;;4157928;28;20080;-69
2021/12/18 08:18:28;;;;;;;5.90;3.40;;;5.90;99.90;;;;;;4158056;28;20436;-60
2021/12/18 08:20:29;;;;;;;8.67;4.43;;;5.80;99.90;;;;;;4157612;28;20041;-71
2021/12/18 08:22:30;;;;;;;16.13;7.53;;;5.80;99.90;;;;;;4158516;28;20679;-60
2021/12/18 08:24:32;;;;;;;18.23;9.17;;;5.70;99.90;;;;;;4157797;28;20025;-60
2021/12/18 08:26:33;;;;;;;18.73;9.57;;;5.70;99.90;;;;;;4158029;28;20030;-59
2021/12/18 08:28:34;;;;;;;19.70;10.27;;;5.90;99.90;;;;;;4158242;28;20033;-59
2021/12/18 08:30:38;;;;;;;19.50;10.00;;;5.80;99.90;;;;;;4157791;28;20071;-60
2021/12/18 08:32:43;;;;;;;19.20;7.50;;;5.80;99.90;;;;;;4158714;28;20547;-58
2021/12/18 08:34:44;;;;;;;4.50;3.23;;;5.60;99.90;;;;;;4157545;28;20041;-60
2021/12/18 08:36:45;;;;;;;4.47;2.43;;;5.30;99.90;;;;;;4158889;28;20037;-61
2021/12/18 08:38:46;;;;;;;5.57;3.93;;;4.80;99.90;;;;;;4157350;28;20398;-59
2021/12/18 08:40:49;;;;;;;6.93;3.30;;;4.40;99.90;;;;;;4158843;28;20083;-63
2021/12/18 08:42:51;;;;;;;7.97;4.87;;;4.20;99.90;;;;;;4157374;28;20107;-60
2021/12/18 08:44:52;;;;;;;6.47;2.93;;;4.40;99.90;;;;;;4158930;28;20482;-59
2021/12/18 08:46:53;;;;;;;6.40;2.10;;;4.30;99.90;;;;;;4157646;28;20037;-61
2021/12/18 08:48:54;;;;;;;8.87;4.70;;;4.00;99.90;;;;;;4158680;28;20305;-58
2021/12/18 08:50:57;;;;;;;11.83;4.87;;;4.10;99.90;;;;;;4157020;28;20833;-62
2021/12/18 08:52:58;;;;;;;17.13;6.27;;;4.20;99.90;;;;;;4158065;28;20267;-60
2021/12/18 08:54:59;;;;;;;12.13;4.23;;;4.10;99.90;;;;;;4157173;28;20336;-59
2021/12/18 08:57:00;;;;;;;13.20;6.33;;;4.10;99.90;;;;;;4157371;28;20329;-61
2021/12/18 08:59:03;;;;;;;15.43;5.43;;;4.30;99.90;;;;;;4157008;28;20291;-66
2021/12/18 09:01:04;;;;;;;8.97;4.77;;;4.40;99.90;;;;;;4157242;28;20275;-61
2021/12/18 09:03:06;;;;;;;7.13;3.60;;;4.50;99.90;;;;;;4157729;28;20698;-63
2021/12/18 09:05:08;;;;;;;7.07;3.60;;;4.70;99.90;;;;;;4157175;28;20321;-68
2021/12/18 09:07:10;;;;;;;8.03;2.50;;;4.90;99.90;;;;;;4157839;28;20291;-63
2021/12/18 09:09:11;;;;;;;4.13;1.83;;;4.90;99.90;;;;;;4156854;28;20349;-62
2021/12/18 09:11:12;;;;;;;6.23;3.00;;;4.90;99.90;;;;;;4158075;28;20341;-62
2021/12/18 09:13:13;;;;;;;9.77;2.33;;;5.00;99.90;;;;;;4156841;28;20678;-62
2021/12/18 09:15:14;;;;;;;2.87;2.13;;;5.00;99.90;;;;;;4156729;28;20761;-62
2021/12/18 09:17:15;;;;;;;5.43;2.70;;;5.00;99.90;;;;;;4155906;28;20301;-61
2021/12/18 09:19:16;;;;;;;1.80;1.30;;;4.90;99.90;;;;;;4158098;28;20278;-65
2021/12/18 09:21:19;;;;;;;5.77;2.00;;;4.70;99.90;;;;;;4156577;28;20685;-60
2021/12/18 09:23:22;;;;;;;6.17;2.83;;;4.50;99.90;;;;;;4158152;28;20352;-64
2021/12/18 09:25:23;;;;;;;6.30;2.60;;;4.50;99.90;;;;;;4156810;28;20304;-60
2021/12/18 09:27:24;;;;;;;6.13;2.13;;;4.50;99.90;;;;;;4157564;28;20274;-61
2021/12/18 09:29:25;;;;;;;5.47;2.63;;;4.50;99.90;;;;;;4156635;28;20279;-61
2021/12/18 09:31:27;;;;;;;5.30;1.80;;;4.70;99.90;;;;;;4156667;28;20271;-62
2021/12/18 09:33:28;;;;;;;4.73;1.60;;;4.90;99.90;;;;;;4157380;28;20341;-60
2021/12/18 09:35:29;;;;;;;5.37;2.03;;;4.90;99.90;;;;;;4156490;28;20266;-62
2021/12/18 09:37:30;;;;;;;7.37;2.97;;;4.80;99.90;;;;;;4157444;28;20321;-61
2021/12/18 09:39:31;;;;;;;7.53;3.60;;;4.70;99.90;;;;;;4156167;28;20329;-62
2021/12/18 09:41:33;;;;;;;12.80;4.43;;;4.70;99.90;;;;;;4157223;28;20263;-61
2021/12/18 09:43:37;;;;;;;8.70;3.23;;;4.60;99.90;;;;;;4155866;28;20387;-62
2021/12/18 09:45:38;;;;;;;8.23;3.07;;;4.60;99.90;;;;;;4157858;28;20354;-62
2021/12/18 09:47:40;;;;;;;4.90;2.10;;;4.60;99.90;;;;;;4155806;28;20282;-61
2021/12/18 09:49:41;;;;;;;5.00;2.63;;;4.50;99.90;;;;;;4157164;28;20743;-63
2021/12/18 09:51:43;;;;;;;3.57;1.80;;;4.40;99.90;;;;;;4155914;28;20275;-61
2021/12/18 09:53:44;;;;;;;3.23;1.27;;;4.30;99.90;;;;;;4157476;28;20278;-62
2021/12/18 09:55:45;;;;;;;9.47;1.90;;;4.20;99.90;;;;;;4156070;28;20251;-65
2021/12/18 09:57:47;;;;;;;5.33;2.10;;;4.20;99.90;;;;;;4155954;28;20390;-63
2021/12/18 09:59:48;;;;;;;6.30;2.13;;;4.10;99.90;;;;;;4156328;28;20812;-62
2021/12/18 10:01:50;;;;;;;4.60;2.33;;;4.00;99.90;;;;;;4156682;28;20317;-63
2021/12/18 10:03:56;;;;;;;3.43;2.10;;;4.00;99.90;;;;;;4156928;28;20345;-62
2021/12/18 10:05:57;;;;;;;3.70;1.87;;;4.00;99.90;;;;;;4156439;28;20340;-63
2021/12/18 10:08:17;;;;;;;5.87;2.33;;;4.00;99.90;;;;;;4156946;28;20263;-61
2021/12/18 10:10:18;;;;;;;4.90;2.00;;;4.00;99.90;;;;;;4156448;28;20262;-62
2021/12/18 10:12:24;;;;;;;9.03;2.10;;;3.90;99.90;;;;;;4156871;28;20328;-60
2021/12/18 10:14:55;;;;;;;6.90;1.90;;;3.90;99.90;;;;;;4155407;28;20317;-66
2021/12/18 10:16:56;;;;;;;2.63;1.40;;;3.80;99.90;;;;;;4156368;28;20271;-64
2021/12/18 10:18:59;;;;;;;4.10;1.70;;;3.80;99.90;;;;;;4155786;28;20151;-62
2021/12/18 10:21:15;;;;;;;7.20;2.03;;;3.90;99.90;;;;;;4155943;28;20275;-61
2021/12/18 10:23:26;;;;;;;6.90;1.67;;;4.00;99.90;;;;;;4156176;28;20295;-65
2021/12/18 10:25:38;;;;;;;2.15;1.13;;;4.00;99.90;;;;;;4156248;28;20678;-64
2021/12/18 10:27:42;;;;;;;7.07;1.20;;;4.10;99.90;;;;;;4155640;28;20045;-61
2021/12/18 10:29:43;;;;;;;4.80;1.20;;;4.10;99.90;;;;;;4154732;28;20360;-61
2021/12/18 10:31:46;;;;;;;3.60;1.30;;;4.00;99.90;;;;;;4155725;28;20828;-70
2021/12/18 10:33:47;;;;;;;5.90;1.40;;;4.00;99.90;;;;;;4157063;28;20271;-62
2021/12/18 10:35:54;;;;;;;2.40;1.17;;;4.00;99.90;;;;;;4155736;28;20274;-63
2021/12/18 10:37:55;;;;;;;4.30;1.50;;;4.00;99.90;;;;;;4156649;28;20321;-61
2021/12/18 10:40:05;;;;;;;2.10;0.97;;;4.10;99.90;;;;;;4154787;28;20313;-61
2021/12/18 10:42:22;;;;;;;4.00;1.83;;;4.10;99.90;;;;;;4156910;28;20305;-61
2021/12/18 10:44:25;;;;;;;8.53;2.13;;;4.10;99.90;;;;;;4155423;28;20041;-60
2021/12/18 10:46:27;;;;;;;4.27;1.50;;;4.00;99.90;;;;;;4157129;28;20659;-73
2021/12/18 10:48:28;;;;;;;2.37;1.53;;;4.10;99.90;;;;;;4155837;28;20345;-60
2021/12/18 10:50:48;;;;;;;6.00;1.57;;;4.10;99.90;;;;;;4156957;28;20267;-61
2021/12/18 10:53:11;;;;;;;2.83;1.40;;;4.10;99.90;;;;;;4155071;28;20279;-60
2021/12/18 10:55:12;;;;;;;2.87;1.70;;;4.10;99.90;;;;;;4157018;28;20091;-61
2021/12/18 10:57:21;;;;;;;3.17;1.23;;;4.10;99.90;;;;;;4155491;28;20344;-62
2021/12/18 10:59:27;;;;;;;2.63;1.10;;;4.20;99.90;;;;;;4156378;28;20372;-60
2021/12/18 11:01:29;;;;;;;4.60;1.50;;;4.10;99.90;;;;;;4154557;28;20662;-61
2021/12/18 11:03:46;;;;;;;4.33;1.57;;;4.10;99.90;;;;;;4156281;28;20376;-60
2021/12/18 11:06:10;;;;;;;6.77;1.60;;;4.10;99.90;;;;;;4154993;28;20704;-61
2021/12/18 11:08:12;;;;;;;3.63;2.07;;;4.10;99.90;;;;;;4153660;28;20278;-63
2021/12/18 11:10:43;;;;;;;2.80;1.73;;;4.10;99.90;;;;;;4155446;28;20348;-63
2021/12/18 11:15:03;;;;;;;4.67;2.10;;;4.20;99.90;;;;;;4155396;28;20588;-64
2021/12/18 11:17:10;;;;;;;4.07;1.73;;;4.20;99.90;;;;;;4156265;28;20755;-60
2021/12/18 11:19:14;;;;;;;3.60;1.70;;;4.20;99.90;;;;;;4153494;28;20369;-59
2021/12/18 11:21:15;;;;;;;2.37;1.60;;;4.20;99.90;;;;;;4156361;28;20270;-61
2021/12/18 11:23:24;;;;;;;5.63;1.80;;;4.20;99.90;;;;;;4155117;28;20306;-61